Main page
Satellite images 10-day forecastsClimateMarine weather Cyclones Lightning AirportsFAQ Newsletter About
Weather : Europe Africa North America South America Asia Australia-Oceania Others
Languages Contact

Belgrade, Serbia

Nikola Tesla

latitude: 44-49N, longitude: 020-17E, elevation: 96 m


METAR: LYBE 301030Z 14026KT CAVOK 11/02 Q0982 NOSIG
TAF: LYBE 300500Z 3006/3106 13018KT 9999 SCT040 TX12/3012Z TN05/3106Z TEMPO 3009/3015 13022G35KT BECMG 3021/3023 22009KT

Time: 11:50 (10:50 UTC)

Current weather observation

The report was made 20 minutes ago, at 10:30 UTC
Wind 26 kt from the Southeast
Temperature 11°C
Humidity 54%
Pressure 982 hPa
Visibility 10 km or more
no clouds below 1500 m and no cumulonimbus

Change units

Forecast

The report was made 5 hours and 50 minutes ago, at 05:00 UTC
Forecast valid from 30 at 06 UTC to 31 at 06 UTC
Wind 18 kt from the Southeast
Visibility 10 km or more
Scattered clouds at a height of 4000 ft
Temporary
from 30 at 09 UTC to 30 at 15 UTC
Wind 22 kt from the Southeast with gusts up to 35 kt
Becoming
from 30 at 21 UTC to 30 at 23 UTC
Wind 9 kt from the Southwest
The information on this site is subject to a disclaimer
Weather : Europe Africa North America South America Asia Australia-Oceania Others
Satellite images 10-day forecastsClimateMarine weather Cyclones Lightning AirportsFAQ Languages Contact Newsletter About